sensor_id;sensor_type;location;lat;lon;timestamp;P1;durP1;ratioP1;P2;durP2;ratioP2
68126;SDS011;54931;52.098;21.006;2023-02-19T00:02:17;16.30;;;7.30;;
68126;SDS011;54931;52.098;21.006;2023-02-19T00:04:45;16.50;;;6.90;;
68126;SDS011;54931;52.098;21.006;2023-02-19T00:07:13;15.20;;;6.80;;
68126;SDS011;54931;52.098;21.006;2023-02-19T00:09:42;16.00;;;5.90;;
68126;SDS011;54931;52.098;21.006;2023-02-19T00:12:10;12.30;;;6.40;;
68126;SDS011;54931;52.098;21.006;2023-02-19T00:14:39;13.60;;;4.90;;
68126;SDS011;54931;52.098;21.006;2023-02-19T00:17:08;15.90;;;6.10;;
68126;SDS011;54931;52.098;21.006;2023-02-19T00:19:36;15.10;;;5.90;;
68126;SDS011;54931;52.098;21.006;2023-02-19T00:22:04;16.20;;;5.80;;
68126;SDS011;54931;52.098;21.006;2023-02-19T00:24:32;12.80;;;6.20;;
68126;SDS011;54931;52.098;21.006;2023-02-19T00:27:00;13.60;;;6.10;;
68126;SDS011;54931;52.098;21.006;2023-02-19T00:29:27;15.20;;;5.40;;
68126;SDS011;54931;52.098;21.006;2023-02-19T00:31:55;15.80;;;6.50;;
68126;SDS011;54931;52.098;21.006;2023-02-19T00:34:23;14.80;;;7.60;;
68126;SDS011;54931;52.098;21.006;2023-02-19T00:36:51;13.20;;;5.30;;
68126;SDS011;54931;52.098;21.006;2023-02-19T00:39:19;16.60;;;6.50;;
68126;SDS011;54931;52.098;21.006;2023-02-19T00:41:47;11.70;;;6.40;;
68126;SDS011;54931;52.098;21.006;2023-02-19T00:44:15;15.00;;;6.40;;
68126;SDS011;54931;52.098;21.006;2023-02-19T00:46:45;15.30;;;6.50;;
68126;SDS011;54931;52.098;21.006;2023-02-19T00:49:20;13.60;;;7.20;;
68126;SDS011;54931;52.098;21.006;2023-02-19T00:51:50;16.10;;;6.70;;
68126;SDS011;54931;52.098;21.006;2023-02-19T00:54:20;17.90;;;7.40;;
68126;SDS011;54931;52.098;21.006;2023-02-19T00:56:49;12.70;;;5.90;;
68126;SDS011;54931;52.098;21.006;2023-02-19T00:59:17;14.70;;;6.10;;
68126;SDS011;54931;52.098;21.006;2023-02-19T01:01:45;12.00;;;5.10;;
68126;SDS011;54931;52.098;21.006;2023-02-19T01:04:13;12.40;;;5.20;;
68126;SDS011;54931;52.098;21.006;2023-02-19T01:06:42;14.70;;;6.10;;
68126;SDS011;54931;52.098;21.006;2023-02-19T01:09:11;11.30;;;5.40;;
68126;SDS011;54931;52.098;21.006;2023-02-19T01:11:40;12.80;;;5.30;;
68126;SDS011;54931;52.098;21.006;2023-02-19T01:14:08;13.80;;;5.90;;
68126;SDS011;54931;52.098;21.006;2023-02-19T01:16:37;16.30;;;6.70;;
68126;SDS011;54931;52.098;21.006;2023-02-19T01:19:04;14.50;;;4.70;;
68126;SDS011;54931;52.098;21.006;2023-02-19T01:21:32;14.90;;;5.80;;
68126;SDS011;54931;52.098;21.006;2023-02-19T01:24:00;13.50;;;5.70;;
68126;SDS011;54931;52.098;21.006;2023-02-19T01:26:30;12.70;;;5.60;;
68126;SDS011;54931;52.098;21.006;2023-02-19T01:29:00;13.20;;;6.50;;
68126;SDS011;54931;52.098;21.006;2023-02-19T01:31:28;14.70;;;5.70;;
68126;SDS011;54931;52.098;21.006;2023-02-19T01:34:00;14.40;;;5.60;;
68126;SDS011;54931;52.098;21.006;2023-02-19T01:36:32;12.70;;;6.30;;
68126;SDS011;54931;52.098;21.006;2023-02-19T01:39:00;7.90;;;3.30;;
68126;SDS011;54931;52.098;21.006;2023-02-19T01:41:34;8.30;;;4.60;;
68126;SDS011;54931;52.098;21.006;2023-02-19T01:46:42;9.10;;;4.90;;
68126;SDS011;54931;52.098;21.006;2023-02-19T01:51:59;14.20;;;5.40;;
68126;SDS011;54931;52.098;21.006;2023-02-19T01:54:37;11.50;;;5.10;;
68126;SDS011;54931;52.098;21.006;2023-02-19T01:57:13;10.50;;;4.90;;
68126;SDS011;54931;52.098;21.006;2023-02-19T01:59:47;12.60;;;5.20;;
68126;SDS011;54931;52.098;21.006;2023-02-19T02:02:16;13.10;;;4.50;;
68126;SDS011;54931;52.098;21.006;2023-02-19T02:04:44;16.80;;;4.70;;
68126;SDS011;54931;52.098;21.006;2023-02-19T02:07:12;13.00;;;4.20;;
68126;SDS011;54931;52.098;21.006;2023-02-19T02:09:59;11.20;;;5.00;;
68126;SDS011;54931;52.098;21.006;2023-02-19T02:12:47;9.50;;;4.50;;
68126;SDS011;54931;52.098;21.006;2023-02-19T02:15:17;11.60;;;4.60;;
68126;SDS011;54931;52.098;21.006;2023-02-19T02:18:07;12.10;;;4.60;;
68126;SDS011;54931;52.098;21.006;2023-02-19T02:26:53;10.80;;;4.60;;
68126;SDS011;54931;52.098;21.006;2023-02-19T02:35:50;11.30;;;3.80;;
68126;SDS011;54931;52.098;21.006;2023-02-19T02:38:25;10.10;;;4.60;;
68126;SDS011;54931;52.098;21.006;2023-02-19T02:40:56;13.40;;;4.80;;
68126;SDS011;54931;52.098;21.006;2023-02-19T02:43:26;11.40;;;4.60;;
68126;SDS011;54931;52.098;21.006;2023-02-19T02:45:54;12.80;;;4.70;;
68126;SDS011;54931;52.098;21.006;2023-02-19T02:56:44;10.60;;;3.60;;
68126;SDS011;54931;52.098;21.006;2023-02-19T02:59:15;9.30;;;3.70;;
68126;SDS011;54931;52.098;21.006;2023-02-19T03:05:09;8.70;;;3.20;;
68126;SDS011;54931;52.098;21.006;2023-02-19T03:11:10;14.30;;;5.00;;
68126;SDS011;54931;52.098;21.006;2023-02-19T03:14:50;8.10;;;3.00;;
68126;SDS011;54931;52.098;21.006;2023-02-19T03:17:51;7.30;;;3.00;;
68126;SDS011;54931;52.098;21.006;2023-02-19T03:20:43;8.60;;;3.00;;
68126;SDS011;54931;52.098;21.006;2023-02-19T03:23:16;7.10;;;3.00;;
68126;SDS011;54931;52.098;21.006;2023-02-19T03:25:48;10.20;;;3.20;;
68126;SDS011;54931;52.098;21.006;2023-02-19T03:28:34;8.00;;;2.80;;
68126;SDS011;54931;52.098;21.006;2023-02-19T03:31:26;6.10;;;2.70;;
68126;SDS011;54931;52.098;21.006;2023-02-19T03:34:00;6.90;;;2.60;;
68126;SDS011;54931;52.098;21.006;2023-02-19T03:36:39;8.70;;;3.00;;
68126;SDS011;54931;52.098;21.006;2023-02-19T03:39:13;9.70;;;2.50;;
68126;SDS011;54931;52.098;21.006;2023-02-19T03:42:11;7.70;;;2.10;;
68126;SDS011;54931;52.098;21.006;2023-02-19T03:45:06;8.20;;;3.00;;
68126;SDS011;54931;52.098;21.006;2023-02-19T03:51:19;11.90;;;2.50;;
68126;SDS011;54931;52.098;21.006;2023-02-19T03:53:51;8.00;;;2.50;;
68126;SDS011;54931;52.098;21.006;2023-02-19T03:56:27;8.40;;;2.60;;
68126;SDS011;54931;52.098;21.006;2023-02-19T03:59:10;7.80;;;2.10;;
68126;SDS011;54931;52.098;21.006;2023-02-19T04:01:53;8.90;;;2.60;;
68126;SDS011;54931;52.098;21.006;2023-02-19T04:04:31;7.00;;;2.70;;
68126;SDS011;54931;52.098;21.006;2023-02-19T04:07:04;7.80;;;2.40;;
68126;SDS011;54931;52.098;21.006;2023-02-19T04:09:36;9.70;;;2.50;;
68126;SDS011;54931;52.098;21.006;2023-02-19T04:12:10;10.30;;;2.70;;
68126;SDS011;54931;52.098;21.006;2023-02-19T04:14:46;6.50;;;2.20;;
68126;SDS011;54931;52.098;21.006;2023-02-19T04:17:57;4.80;;;2.50;;
68126;SDS011;54931;52.098;21.006;2023-02-19T04:20:35;10.90;;;3.10;;
68126;SDS011;54931;52.098;21.006;2023-02-19T04:23:07;7.00;;;2.00;;
68126;SDS011;54931;52.098;21.006;2023-02-19T04:25:37;7.60;;;2.80;;
68126;SDS011;54931;52.098;21.006;2023-02-19T04:28:08;8.60;;;2.30;;
68126;SDS011;54931;52.098;21.006;2023-02-19T04:30:36;5.90;;;2.40;;
68126;SDS011;54931;52.098;21.006;2023-02-19T04:33:04;6.30;;;2.60;;
68126;SDS011;54931;52.098;21.006;2023-02-19T04:35:32;11.20;;;3.20;;
68126;SDS011;54931;52.098;21.006;2023-02-19T04:38:00;9.50;;;2.30;;
68126;SDS011;54931;52.098;21.006;2023-02-19T04:40:28;9.30;;;2.70;;
68126;SDS011;54931;52.098;21.006;2023-02-19T04:42:56;8.00;;;2.40;;
68126;SDS011;54931;52.098;21.006;2023-02-19T04:45:24;10.60;;;3.40;;
68126;SDS011;54931;52.098;21.006;2023-02-19T04:47:52;9.10;;;2.60;;
68126;SDS011;54931;52.098;21.006;2023-02-19T04:50:20;6.80;;;2.80;;
68126;SDS011;54931;52.098;21.006;2023-02-19T04:52:50;8.80;;;2.90;;
68126;SDS011;54931;52.098;21.006;2023-02-19T04:55:17;5.10;;;2.10;;
68126;SDS011;54931;52.098;21.006;2023-02-19T04:57:45;8.50;;;2.80;;
68126;SDS011;54931;52.098;21.006;2023-02-19T05:00:14;13.60;;;3.20;;
68126;SDS011;54931;52.098;21.006;2023-02-19T05:02:42;6.40;;;2.40;;
68126;SDS011;54931;52.098;21.006;2023-02-19T05:05:10;10.00;;;3.40;;
68126;SDS011;54931;52.098;21.006;2023-02-19T05:07:38;9.80;;;2.30;;
68126;SDS011;54931;52.098;21.006;2023-02-19T05:10:06;11.20;;;3.00;;
68126;SDS011;54931;52.098;21.006;2023-02-19T05:12:35;10.80;;;2.90;;
68126;SDS011;54931;52.098;21.006;2023-02-19T05:15:03;11.80;;;3.50;;
68126;SDS011;54931;52.098;21.006;2023-02-19T05:17:33;9.80;;;3.70;;
68126;SDS011;54931;52.098;21.006;2023-02-19T05:20:01;8.80;;;2.90;;
68126;SDS011;54931;52.098;21.006;2023-02-19T05:22:29;13.80;;;3.60;;
68126;SDS011;54931;52.098;21.006;2023-02-19T05:24:56;13.10;;;3.40;;
68126;SDS011;54931;52.098;21.006;2023-02-19T05:27:24;11.80;;;3.70;;
68126;SDS011;54931;52.098;21.006;2023-02-19T05:29:53;11.30;;;3.60;;
68126;SDS011;54931;52.098;21.006;2023-02-19T05:32:20;13.10;;;3.60;;
68126;SDS011;54931;52.098;21.006;2023-02-19T05:34:49;7.00;;;3.50;;
68126;SDS011;54931;52.098;21.006;2023-02-19T05:37:17;9.80;;;4.60;;
68126;SDS011;54931;52.098;21.006;2023-02-19T05:39:45;10.10;;;3.90;;
68126;SDS011;54931;52.098;21.006;2023-02-19T05:42:15;12.30;;;3.80;;
68126;SDS011;54931;52.098;21.006;2023-02-19T05:44:43;13.50;;;4.30;;
68126;SDS011;54931;52.098;21.006;2023-02-19T05:47:11;11.50;;;3.90;;
68126;SDS011;54931;52.098;21.006;2023-02-19T05:49:39;12.60;;;3.70;;
68126;SDS011;54931;52.098;21.006;2023-02-19T05:52:06;7.60;;;3.20;;
68126;SDS011;54931;52.098;21.006;2023-02-19T05:54:34;9.90;;;3.70;;
68126;SDS011;54931;52.098;21.006;2023-02-19T05:57:02;11.50;;;3.80;;
68126;SDS011;54931;52.098;21.006;2023-02-19T05:59:30;9.50;;;4.00;;
68126;SDS011;54931;52.098;21.006;2023-02-19T06:01:58;12.90;;;3.60;;
68126;SDS011;54931;52.098;21.006;2023-02-19T06:04:26;10.50;;;4.00;;
68126;SDS011;54931;52.098;21.006;2023-02-19T06:06:54;12.90;;;4.70;;
68126;SDS011;54931;52.098;21.006;2023-02-19T06:09:22;11.10;;;4.10;;
68126;SDS011;54931;52.098;21.006;2023-02-19T06:11:50;9.60;;;3.40;;
68126;SDS011;54931;52.098;21.006;2023-02-19T06:14:17;7.80;;;3.60;;
68126;SDS011;54931;52.098;21.006;2023-02-19T06:16:45;11.50;;;4.40;;
68126;SDS011;54931;52.098;21.006;2023-02-19T06:19:13;11.40;;;3.80;;
68126;SDS011;54931;52.098;21.006;2023-02-19T06:21:41;12.80;;;4.50;;
68126;SDS011;54931;52.098;21.006;2023-02-19T06:24:09;17.20;;;4.90;;
68126;SDS011;54931;52.098;21.006;2023-02-19T06:26:37;13.50;;;5.10;;
68126;SDS011;54931;52.098;21.006;2023-02-19T06:29:05;13.60;;;4.90;;
68126;SDS011;54931;52.098;21.006;2023-02-19T06:31:33;15.00;;;5.80;;
68126;SDS011;54931;52.098;21.006;2023-02-19T06:34:04;16.10;;;4.80;;
68126;SDS011;54931;52.098;21.006;2023-02-19T06:36:32;10.50;;;4.30;;
68126;SDS011;54931;52.098;21.006;2023-02-19T06:39:01;9.90;;;4.80;;
68126;SDS011;54931;52.098;21.006;2023-02-19T06:41:30;8.70;;;4.20;;
68126;SDS011;54931;52.098;21.006;2023-02-19T06:43:58;15.00;;;5.10;;
68126;SDS011;54931;52.098;21.006;2023-02-19T06:46:26;11.00;;;4.50;;
68126;SDS011;54931;52.098;21.006;2023-02-19T06:48:54;18.50;;;5.30;;
68126;SDS011;54931;52.098;21.006;2023-02-19T06:51:22;14.90;;;4.80;;
68126;SDS011;54931;52.098;21.006;2023-02-19T06:53:53;11.70;;;4.40;;
68126;SDS011;54931;52.098;21.006;2023-02-19T06:56:24;11.70;;;4.80;;
68126;SDS011;54931;52.098;21.006;2023-02-19T06:58:55;12.40;;;4.50;;
68126;SDS011;54931;52.098;21.006;2023-02-19T07:01:27;14.60;;;5.50;;
68126;SDS011;54931;52.098;21.006;2023-02-19T07:03:56;13.90;;;5.50;;
68126;SDS011;54931;52.098;21.006;2023-02-19T07:06:25;13.40;;;5.90;;
68126;SDS011;54931;52.098;21.006;2023-02-19T07:08:55;12.40;;;4.80;;
68126;SDS011;54931;52.098;21.006;2023-02-19T07:11:24;11.70;;;5.30;;
68126;SDS011;54931;52.098;21.006;2023-02-19T07:13:54;13.40;;;5.60;;
68126;SDS011;54931;52.098;21.006;2023-02-19T07:16:24;9.70;;;5.10;;
68126;SDS011;54931;52.098;21.006;2023-02-19T07:18:55;13.30;;;4.50;;
68126;SDS011;54931;52.098;21.006;2023-02-19T07:21:25;10.60;;;5.70;;
68126;SDS011;54931;52.098;21.006;2023-02-19T07:23:54;10.80;;;4.00;;
68126;SDS011;54931;52.098;21.006;2023-02-19T07:26:24;14.90;;;5.10;;
68126;SDS011;54931;52.098;21.006;2023-02-19T07:28:52;11.90;;;4.20;;
68126;SDS011;54931;52.098;21.006;2023-02-19T07:31:22;10.30;;;4.80;;
68126;SDS011;54931;52.098;21.006;2023-02-19T07:33:50;11.10;;;4.50;;
68126;SDS011;54931;52.098;21.006;2023-02-19T07:36:19;15.30;;;4.80;;
68126;SDS011;54931;52.098;21.006;2023-02-19T07:38:56;14.70;;;5.00;;
68126;SDS011;54931;52.098;21.006;2023-02-19T07:41:26;8.80;;;4.00;;
68126;SDS011;54931;52.098;21.006;2023-02-19T07:43:54;13.50;;;4.70;;
68126;SDS011;54931;52.098;21.006;2023-02-19T07:46:22;10.70;;;5.10;;
68126;SDS011;54931;52.098;21.006;2023-02-19T07:48:51;16.70;;;5.70;;
68126;SDS011;54931;52.098;21.006;2023-02-19T07:51:19;14.60;;;5.20;;
68126;SDS011;54931;52.098;21.006;2023-02-19T07:53:48;15.10;;;5.20;;
68126;SDS011;54931;52.098;21.006;2023-02-19T07:56:19;13.20;;;4.70;;
68126;SDS011;54931;52.098;21.006;2023-02-19T07:58:47;13.50;;;5.40;;
68126;SDS011;54931;52.098;21.006;2023-02-19T08:01:17;14.70;;;5.00;;
68126;SDS011;54931;52.098;21.006;2023-02-19T08:04:08;14.00;;;5.60;;
68126;SDS011;54931;52.098;21.006;2023-02-19T08:06:37;13.20;;;5.60;;
68126;SDS011;54931;52.098;21.006;2023-02-19T08:09:06;10.70;;;4.10;;
68126;SDS011;54931;52.098;21.006;2023-02-19T08:11:34;13.00;;;4.80;;
68126;SDS011;54931;52.098;21.006;2023-02-19T08:14:27;15.50;;;4.90;;
68126;SDS011;54931;52.098;21.006;2023-02-19T08:16:55;13.90;;;6.30;;
68126;SDS011;54931;52.098;21.006;2023-02-19T08:19:23;15.40;;;5.60;;
68126;SDS011;54931;52.098;21.006;2023-02-19T08:21:51;13.70;;;5.50;;
68126;SDS011;54931;52.098;21.006;2023-02-19T08:24:20;17.00;;;5.50;;
68126;SDS011;54931;52.098;21.006;2023-02-19T08:26:48;18.70;;;6.00;;
68126;SDS011;54931;52.098;21.006;2023-02-19T08:29:16;15.90;;;6.40;;
68126;SDS011;54931;52.098;21.006;2023-02-19T08:31:44;14.70;;;6.10;;
68126;SDS011;54931;52.098;21.006;2023-02-19T08:34:12;16.70;;;6.20;;
68126;SDS011;54931;52.098;21.006;2023-02-19T08:36:39;20.90;;;7.40;;
68126;SDS011;54931;52.098;21.006;2023-02-19T08:39:07;18.90;;;6.80;;
68126;SDS011;54931;52.098;21.006;2023-02-19T08:41:36;16.40;;;6.10;;
68126;SDS011;54931;52.098;21.006;2023-02-19T08:44:04;14.80;;;6.00;;
68126;SDS011;54931;52.098;21.006;2023-02-19T08:46:31;12.10;;;5.90;;
68126;SDS011;54931;52.098;21.006;2023-02-19T08:48:59;16.10;;;6.40;;
68126;SDS011;54931;52.098;21.006;2023-02-19T08:51:28;14.10;;;6.40;;
68126;SDS011;54931;52.098;21.006;2023-02-19T08:53:56;15.20;;;6.20;;
68126;SDS011;54931;52.098;21.006;2023-02-19T08:56:23;14.30;;;6.20;;
68126;SDS011;54931;52.098;21.006;2023-02-19T08:58:51;13.30;;;5.80;;
68126;SDS011;54931;52.098;21.006;2023-02-19T09:01:19;17.30;;;5.60;;
68126;SDS011;54931;52.098;21.006;2023-02-19T09:03:47;20.70;;;7.00;;
68126;SDS011;54931;52.098;21.006;2023-02-19T09:06:18;15.00;;;6.30;;
68126;SDS011;54931;52.098;21.006;2023-02-19T09:08:46;16.10;;;6.10;;
68126;SDS011;54931;52.098;21.006;2023-02-19T09:11:14;14.90;;;6.20;;
68126;SDS011;54931;52.098;21.006;2023-02-19T09:13:43;13.90;;;6.30;;
68126;SDS011;54931;52.098;21.006;2023-02-19T09:16:11;13.30;;;5.50;;
68126;SDS011;54931;52.098;21.006;2023-02-19T09:18:40;17.90;;;6.70;;
68126;SDS011;54931;52.098;21.006;2023-02-19T09:21:08;15.30;;;6.70;;
68126;SDS011;54931;52.098;21.006;2023-02-19T09:23:36;14.70;;;5.90;;
68126;SDS011;54931;52.098;21.006;2023-02-19T09:26:05;13.30;;;6.30;;
68126;SDS011;54931;52.098;21.006;2023-02-19T09:28:37;16.10;;;7.00;;
68126;SDS011;54931;52.098;21.006;2023-02-19T09:31:10;16.60;;;7.00;;
68126;SDS011;54931;52.098;21.006;2023-02-19T09:33:44;19.10;;;7.00;;
68126;SDS011;54931;52.098;21.006;2023-02-19T09:36:14;19.80;;;7.40;;
68126;SDS011;54931;52.098;21.006;2023-02-19T09:38:43;16.10;;;7.30;;
68126;SDS011;54931;52.098;21.006;2023-02-19T09:41:21;16.40;;;7.50;;
68126;SDS011;54931;52.098;21.006;2023-02-19T09:43:57;16.20;;;7.00;;
68126;SDS011;54931;52.098;21.006;2023-02-19T09:46:46;16.90;;;7.80;;
68126;SDS011;54931;52.098;21.006;2023-02-19T09:49:37;21.20;;;9.00;;
68126;SDS011;54931;52.098;21.006;2023-02-19T09:57:57;15.70;;;7.30;;
68126;SDS011;54931;52.098;21.006;2023-02-19T10:00:29;21.30;;;8.60;;
68126;SDS011;54931;52.098;21.006;2023-02-19T10:03:04;12.20;;;6.20;;
68126;SDS011;54931;52.098;21.006;2023-02-19T10:05:38;14.60;;;6.10;;
68126;SDS011;54931;52.098;21.006;2023-02-19T10:08:12;13.80;;;6.40;;
68126;SDS011;54931;52.098;21.006;2023-02-19T10:10:47;23.60;;;8.60;;
68126;SDS011;54931;52.098;21.006;2023-02-19T10:13:21;14.70;;;7.00;;
68126;SDS011;54931;52.098;21.006;2023-02-19T10:15:59;11.30;;;6.10;;
68126;SDS011;54931;52.098;21.006;2023-02-19T10:18:42;17.50;;;7.20;;
68126;SDS011;54931;52.098;21.006;2023-02-19T10:21:23;17.80;;;7.80;;
68126;SDS011;54931;52.098;21.006;2023-02-19T10:23:56;16.30;;;7.30;;
68126;SDS011;54931;52.098;21.006;2023-02-19T10:26:29;14.60;;;6.30;;
68126;SDS011;54931;52.098;21.006;2023-02-19T10:29:03;15.70;;;6.90;;
68126;SDS011;54931;52.098;21.006;2023-02-19T10:31:32;19.60;;;7.70;;
68126;SDS011;54931;52.098;21.006;2023-02-19T10:34:00;36.40;;;13.40;;
68126;SDS011;54931;52.098;21.006;2023-02-19T10:36:30;29.90;;;12.40;;
68126;SDS011;54931;52.098;21.006;2023-02-19T10:39:18;14.70;;;7.30;;
68126;SDS011;54931;52.098;21.006;2023-02-19T10:41:50;17.00;;;8.20;;
68126;SDS011;54931;52.098;21.006;2023-02-19T10:44:30;16.50;;;8.00;;
68126;SDS011;54931;52.098;21.006;2023-02-19T10:47:15;14.50;;;7.00;;
68126;SDS011;54931;52.098;21.006;2023-02-19T10:49:45;17.80;;;6.70;;
68126;SDS011;54931;52.098;21.006;2023-02-19T10:52:32;13.00;;;6.00;;
68126;SDS011;54931;52.098;21.006;2023-02-19T10:55:24;15.70;;;6.70;;
68126;SDS011;54931;52.098;21.006;2023-02-19T10:57:56;11.70;;;5.80;;
68126;SDS011;54931;52.098;21.006;2023-02-19T11:00:28;11.50;;;5.80;;
68126;SDS011;54931;52.098;21.006;2023-02-19T11:03:18;14.10;;;7.70;;
68126;SDS011;54931;52.098;21.006;2023-02-19T11:06:03;14.90;;;6.90;;
68126;SDS011;54931;52.098;21.006;2023-02-19T11:08:51;17.20;;;7.40;;
68126;SDS011;54931;52.098;21.006;2023-02-19T11:13:57;30.80;;;7.90;;
68126;SDS011;54931;52.098;21.006;2023-02-19T11:16:41;16.70;;;6.00;;
68126;SDS011;54931;52.098;21.006;2023-02-19T11:21:54;12.30;;;5.40;;
68126;SDS011;54931;52.098;21.006;2023-02-19T11:24:35;13.60;;;5.20;;
68126;SDS011;54931;52.098;21.006;2023-02-19T11:27:17;12.40;;;5.50;;
68126;SDS011;54931;52.098;21.006;2023-02-19T11:29:47;14.00;;;5.40;;
68126;SDS011;54931;52.098;21.006;2023-02-19T11:32:28;12.60;;;5.50;;
68126;SDS011;54931;52.098;21.006;2023-02-19T11:37:58;9.70;;;5.20;;
68126;SDS011;54931;52.098;21.006;2023-02-19T11:40:49;13.50;;;6.10;;
68126;SDS011;54931;52.098;21.006;2023-02-19T11:43:46;11.90;;;5.10;;
68126;SDS011;54931;52.098;21.006;2023-02-19T11:53:25;8.90;;;4.50;;
68126;SDS011;54931;52.098;21.006;2023-02-19T11:56:31;15.90;;;5.30;;
68126;SDS011;54931;52.098;21.006;2023-02-19T11:59:19;11.60;;;5.40;;
68126;SDS011;54931;52.098;21.006;2023-02-19T12:08:07;13.00;;;4.70;;
68126;SDS011;54931;52.098;21.006;2023-02-19T12:26:18;10.10;;;3.80;;
68126;SDS011;54931;52.098;21.006;2023-02-19T12:38:18;8.40;;;3.80;;
68126;SDS011;54931;52.098;21.006;2023-02-19T12:41:28;5.70;;;3.20;;
68126;SDS011;54931;52.098;21.006;2023-02-19T12:44:25;9.80;;;3.70;;
68126;SDS011;54931;52.098;21.006;2023-02-19T12:47:17;10.50;;;3.90;;
68126;SDS011;54931;52.098;21.006;2023-02-19T12:50:06;9.10;;;3.60;;
68126;SDS011;54931;52.098;21.006;2023-02-19T12:52:50;8.10;;;3.30;;
68126;SDS011;54931;52.098;21.006;2023-02-19T12:55:28;8.00;;;3.40;;
68126;SDS011;54931;52.098;21.006;2023-02-19T12:58:01;7.40;;;3.20;;
68126;SDS011;54931;52.098;21.006;2023-02-19T13:00:39;7.50;;;3.20;;
68126;SDS011;54931;52.098;21.006;2023-02-19T13:03:15;8.70;;;3.40;;
68126;SDS011;54931;52.098;21.006;2023-02-19T13:06:18;7.60;;;3.30;;
68126;SDS011;54931;52.098;21.006;2023-02-19T13:08:57;8.90;;;3.40;;
68126;SDS011;54931;52.098;21.006;2023-02-19T13:14:30;8.40;;;3.70;;
68126;SDS011;54931;52.098;21.006;2023-02-19T13:17:23;8.80;;;3.20;;
68126;SDS011;54931;52.098;21.006;2023-02-19T13:19:57;6.80;;;3.10;;
68126;SDS011;54931;52.098;21.006;2023-02-19T13:22:45;11.40;;;4.20;;
68126;SDS011;54931;52.098;21.006;2023-02-19T13:33:00;9.20;;;3.40;;
68126;SDS011;54931;52.098;21.006;2023-02-19T13:38:45;9.30;;;4.00;;
68126;SDS011;54931;52.098;21.006;2023-02-19T13:41:30;9.10;;;3.80;;
68126;SDS011;54931;52.098;21.006;2023-02-19T13:44:19;10.40;;;3.60;;
68126;SDS011;54931;52.098;21.006;2023-02-19T13:46:49;10.00;;;3.20;;
68126;SDS011;54931;52.098;21.006;2023-02-19T13:51:58;8.40;;;3.40;;
68126;SDS011;54931;52.098;21.006;2023-02-19T13:54:46;9.20;;;3.80;;
68126;SDS011;54931;52.098;21.006;2023-02-19T13:57:25;7.90;;;3.60;;
68126;SDS011;54931;52.098;21.006;2023-02-19T13:59:56;11.80;;;4.00;;
68126;SDS011;54931;52.098;21.006;2023-02-19T14:02:31;10.90;;;3.90;;
68126;SDS011;54931;52.098;21.006;2023-02-19T14:05:13;7.30;;;2.90;;
68126;SDS011;54931;52.098;21.006;2023-02-19T14:07:51;9.80;;;2.90;;
68126;SDS011;54931;52.098;21.006;2023-02-19T14:13:53;10.50;;;3.80;;
68126;SDS011;54931;52.098;21.006;2023-02-19T14:19:17;9.10;;;3.90;;
68126;SDS011;54931;52.098;21.006;2023-02-19T14:25:48;12.10;;;4.30;;
68126;SDS011;54931;52.098;21.006;2023-02-19T14:28:23;10.00;;;4.50;;
68126;SDS011;54931;52.098;21.006;2023-02-19T14:31:32;9.80;;;3.10;;
68126;SDS011;54931;52.098;21.006;2023-02-19T14:34:05;6.90;;;3.00;;
68126;SDS011;54931;52.098;21.006;2023-02-19T14:36:52;12.20;;;4.60;;
68126;SDS011;54931;52.098;21.006;2023-02-19T14:39:29;38.40;;;12.20;;
68126;SDS011;54931;52.098;21.006;2023-02-19T14:42:07;29.80;;;10.50;;
68126;SDS011;54931;52.098;21.006;2023-02-19T14:44:51;14.70;;;5.10;;
68126;SDS011;54931;52.098;21.006;2023-02-19T14:47:25;23.30;;;6.90;;
68126;SDS011;54931;52.098;21.006;2023-02-19T14:49:59;12.30;;;5.10;;
68126;SDS011;54931;52.098;21.006;2023-02-19T14:52:44;8.00;;;3.40;;
68126;SDS011;54931;52.098;21.006;2023-02-19T14:57:53;9.80;;;4.20;;
68126;SDS011;54931;52.098;21.006;2023-02-19T15:00:28;10.80;;;3.00;;
68126;SDS011;54931;52.098;21.006;2023-02-19T15:05:34;16.00;;;7.00;;
68126;SDS011;54931;52.098;21.006;2023-02-19T15:08:07;8.40;;;3.50;;
68126;SDS011;54931;52.098;21.006;2023-02-19T15:10:41;28.10;;;9.20;;
68126;SDS011;54931;52.098;21.006;2023-02-19T15:13:11;28.50;;;10.40;;
68126;SDS011;54931;52.098;21.006;2023-02-19T15:15:45;10.30;;;3.00;;
68126;SDS011;54931;52.098;21.006;2023-02-19T15:18:18;25.20;;;8.70;;
68126;SDS011;54931;52.098;21.006;2023-02-19T15:20:49;14.40;;;5.70;;
68126;SDS011;54931;52.098;21.006;2023-02-19T15:23:21;39.60;;;16.90;;
68126;SDS011;54931;52.098;21.006;2023-02-19T15:25:52;74.10;;;29.70;;
68126;SDS011;54931;52.098;21.006;2023-02-19T15:31:14;12.20;;;4.20;;
68126;SDS011;54931;52.098;21.006;2023-02-19T15:33:50;24.90;;;9.10;;
68126;SDS011;54931;52.098;21.006;2023-02-19T15:36:32;18.70;;;7.70;;
68126;SDS011;54931;52.098;21.006;2023-02-19T15:39:01;21.60;;;10.40;;
68126;SDS011;54931;52.098;21.006;2023-02-19T15:41:33;13.00;;;4.90;;
68126;SDS011;54931;52.098;21.006;2023-02-19T15:46:55;17.00;;;5.50;;
68126;SDS011;54931;52.098;21.006;2023-02-19T15:49:45;22.00;;;9.20;;
68126;SDS011;54931;52.098;21.006;2023-02-19T15:52:40;24.20;;;7.50;;
68126;SDS011;54931;52.098;21.006;2023-02-19T15:58:04;76.30;;;30.70;;
68126;SDS011;54931;52.098;21.006;2023-02-19T16:00:58;62.50;;;24.00;;
68126;SDS011;54931;52.098;21.006;2023-02-19T16:03:40;16.10;;;7.20;;
68126;SDS011;54931;52.098;21.006;2023-02-19T16:06:14;31.70;;;12.50;;
68126;SDS011;54931;52.098;21.006;2023-02-19T16:13:50;114.80;;;36.00;;
68126;SDS011;54931;52.098;21.006;2023-02-19T16:16:26;53.40;;;17.50;;
68126;SDS011;54931;52.098;21.006;2023-02-19T16:18:58;78.50;;;25.80;;
68126;SDS011;54931;52.098;21.006;2023-02-19T16:21:26;46.80;;;17.90;;
68126;SDS011;54931;52.098;21.006;2023-02-19T16:24:04;40.00;;;14.80;;
68126;SDS011;54931;52.098;21.006;2023-02-19T16:26:49;31.70;;;11.40;;
68126;SDS011;54931;52.098;21.006;2023-02-19T16:29:23;49.80;;;19.20;;
68126;SDS011;54931;52.098;21.006;2023-02-19T16:31:59;33.80;;;12.50;;
68126;SDS011;54931;52.098;21.006;2023-02-19T16:34:46;43.60;;;16.50;;
68126;SDS011;54931;52.098;21.006;2023-02-19T16:37:36;47.70;;;18.80;;
68126;SDS011;54931;52.098;21.006;2023-02-19T16:45:19;30.20;;;13.10;;
68126;SDS011;54931;52.098;21.006;2023-02-19T16:47:48;33.90;;;12.80;;
68126;SDS011;54931;52.098;21.006;2023-02-19T16:50:21;15.80;;;6.30;;
68126;SDS011;54931;52.098;21.006;2023-02-19T16:52:56;45.20;;;17.90;;
68126;SDS011;54931;52.098;21.006;2023-02-19T16:55:26;50.30;;;20.50;;
68126;SDS011;54931;52.098;21.006;2023-02-19T16:57:55;16.10;;;6.90;;
68126;SDS011;54931;52.098;21.006;2023-02-19T17:00:26;39.00;;;13.00;;
68126;SDS011;54931;52.098;21.006;2023-02-19T17:03:07;59.60;;;23.50;;
68126;SDS011;54931;52.098;21.006;2023-02-19T17:05:38;45.50;;;19.40;;
68126;SDS011;54931;52.098;21.006;2023-02-19T17:08:29;34.50;;;11.70;;
68126;SDS011;54931;52.098;21.006;2023-02-19T17:11:03;31.60;;;14.10;;
68126;SDS011;54931;52.098;21.006;2023-02-19T17:13:33;23.20;;;9.80;;
68126;SDS011;54931;52.098;21.006;2023-02-19T17:16:01;17.30;;;5.90;;
68126;SDS011;54931;52.098;21.006;2023-02-19T17:18:30;24.20;;;9.30;;
68126;SDS011;54931;52.098;21.006;2023-02-19T17:21:36;30.90;;;13.20;;
68126;SDS011;54931;52.098;21.006;2023-02-19T17:24:04;49.90;;;19.70;;